Skip to main content

NOAA/GLERL Met Station at Muskegon, MI

Previous 3 Hours (2 minute increments)
See also Previous 5 Days (top of hour)
Jump down to Data
Switch to [English][Metric]
Zoom: Click and drag, Pan: shift-click and drag, Unzoom: double-click, Unzoom All






See also 1-day windrose plot


NOAA/GLERL Met Station at Muskegon, MI

Previous 3 Hours (2 minute increments)
See also Previous 5 Days (top of hour only)
Jump up to Graphs
Switch to [English][Metric]
                  Wind  Wind  Wind   Air   Dew   Rel     Sta   PAR
                   Spd   Gst   Dir  Temp    Pt   Hum    Pres uE/m2/
YYYY-MM-DD   EST   kts   kts   deg     F     F     %   in Hg   sec
2018-02-21 08:10  13.8  17.9     1  29.7  25.3  83.5   29.78    47
2018-02-21 08:08  13.8  17.9     1  29.7  25.5  84.3   29.77    44
2018-02-21 08:06  14.2  19.1   355  29.7  25.6  84.6   29.77    37
2018-02-21 08:04  15.4  18.7     3  29.7  25.8  85.5   29.77    31
2018-02-21 08:02  12.8  17.1   358  29.7  25.8  85.5   29.77    28
2018-02-21 08:00  15.7  19.1   356  29.7  25.9  85.6   29.77    26
2018-02-21 07:58  13.8  18.7   355  29.7  25.9  85.8   29.77    22
2018-02-21 07:56  15.2  19.1   353  29.7  25.9  85.7   29.77    19
2018-02-21 07:54  15.6  19.8   357  29.5  25.7  85.7   29.77    18
2018-02-21 07:52  14.8  18.7   352  29.7  25.9  85.8   29.77    18
2018-02-21 07:50  13.4  19.8   359  29.5  25.7  85.6   29.77    17
2018-02-21 07:48  15.4  19.8   355  29.5  25.6  85.4   29.77    18
2018-02-21 07:46  16.9  21.2   356  29.5  25.8  85.9   29.77    16
2018-02-21 07:44  16.5  21.2   355  29.7  26.1  86.4   29.76    12
2018-02-21 07:42  16.5  19.4   353  29.7  26.0  86.1   29.76     9
2018-02-21 07:40  13.8  18.7   358  29.5  25.8  86.0   29.75     8
2018-02-21 07:38  14.6  18.1   352  29.7  26.0  86.0   29.75     6
2018-02-21 07:36  14.4  18.3   359  29.5  25.8  86.0   29.75     6
2018-02-21 07:34  14.8  19.2   355  29.5  25.8  85.9   29.75     6
2018-02-21 07:32  16.3  19.2   351  29.5  25.7  85.6   29.75     5
2018-02-21 07:30  16.7  19.6   350  29.7  25.8  85.4   29.75     4
2018-02-21 07:28  16.7  20.6   351  29.7  25.8  85.5   29.75     4
2018-02-21 07:26  16.3  20.8   354  29.5  25.7  85.7   29.75     3
2018-02-21 07:24  16.5  20.4     1  29.5  25.7  85.7   29.75     3
2018-02-21 07:22  18.3  21.8   350  29.7  25.9  85.8   29.74     3
2018-02-21 07:20  16.7  21.2   350  29.7  25.9  85.8   29.74     3
2018-02-21 07:18  16.1  19.2   354  29.7  25.9  85.8   29.74     3
2018-02-21 07:16  17.1  20.8   351  29.7  26.0  86.0   29.74     3
2018-02-21 07:14  14.8  19.2   357  29.7  25.9  85.7   29.74     3
2018-02-21 07:12  16.7  20.0   358  29.7  25.9  85.7   29.74     3
2018-02-21 07:10  16.5  19.4   350  29.7  25.9  85.6   29.73     2
2018-02-21 07:08  16.5  21.4   358  29.7  26.0  86.1   29.73     2
2018-02-21 07:06  14.2  18.3   358  29.7  25.9  85.8   29.73     2
2018-02-21 07:04  15.6  22.7     3  29.7  25.8  85.4   29.73     2
2018-02-21 07:02  18.7  21.6   355  29.7  25.9  85.7   29.73     2
2018-02-21 07:00  17.5  22.6   357  29.7  26.0  86.1   29.73     2
2018-02-21 06:58  14.6  18.7   355  29.7  26.1  86.4   29.72     2
2018-02-21 06:56  14.2  19.2   356  29.7  26.3  87.1   29.72     2
2018-02-21 06:54  15.4  19.1   359  29.7  26.3  87.0   29.72     2
2018-02-21 06:52  16.5  20.6   350  29.7  26.2  86.9   29.72     2
2018-02-21 06:50  14.6  20.4   352  29.7  26.1  86.5   29.72     2
2018-02-21 06:48  16.5  20.6   351  29.7  26.0  86.1   29.72     2
2018-02-21 06:46  17.1  20.6   355  29.7  25.9  85.8   29.72     2
2018-02-21 06:44  19.1  22.0   352  29.7  25.9  85.8   29.72     2
2018-02-21 06:42  19.2  23.1   352  29.7  26.1  86.5   29.72     2
2018-02-21 06:40  17.1  20.4   353  29.7  26.2  86.7   29.71     2
2018-02-21 06:38  17.5  21.2   350  29.7  26.2  86.8   29.71     2
2018-02-21 06:36  14.6  20.6   350  29.7  26.0  86.2   29.71     2
2018-02-21 06:34  20.2  24.3   351  29.7  25.9  85.7   29.72     2
2018-02-21 06:32  19.8  23.7   348  29.7  25.9  85.6   29.71     2
2018-02-21 06:30  20.6  25.3   344  29.8  26.1  85.7   29.71     2
2018-02-21 06:28  18.5  22.4   349  29.8  26.1  85.7   29.71     2
2018-02-21 06:26  19.1  24.5   350  29.8  26.2  86.1   29.71     2
2018-02-21 06:24  17.9  21.8   347  29.8  26.3  86.6   29.71     2
2018-02-21 06:22  16.7  22.4   347  29.8  26.2  86.3   29.71     2
2018-02-21 06:20  18.3  20.8   345  29.8  26.3  86.5   29.71     2
2018-02-21 06:18  14.6  19.4   347  29.8  26.2  86.3   29.71     2
2018-02-21 06:16  17.7  21.6   345  30.0  26.2  85.5   29.71     2
2018-02-21 06:14  19.6  22.7   349  30.0  26.2  85.5   29.71     2
2018-02-21 06:12  20.6  23.1   345  30.0  26.2  85.5   29.71     2
2018-02-21 06:10  19.1  23.1   346  30.0  26.1  85.3   29.71     2
2018-02-21 06:08  18.3  22.4   347  30.0  26.2  85.4   29.70     2
2018-02-21 06:06  16.3  21.0   347  30.2  26.5  85.9   29.70     2
2018-02-21 06:04  17.9  21.4   351  30.2  26.5  85.8   29.70     2
2018-02-21 06:02  17.9  21.4   352  30.2  26.4  85.6   29.69     2
2018-02-21 06:00  17.3  21.2   350  30.2  26.3  85.2   29.68     2
2018-02-21 05:58  19.1  23.1   350  30.2  26.3  85.2   29.68     2
2018-02-21 05:56  21.2  23.7   349  30.2  26.3  85.2   29.69     2
2018-02-21 05:54  17.3  20.4   350  30.2  26.3  85.1   29.68     2
2018-02-21 05:52  19.4  22.9   350  30.2  26.5  85.8   29.68     2
2018-02-21 05:50  15.2  23.1   352  30.2  26.6  86.3   29.68     2
2018-02-21 05:48  16.5  22.0   347  30.2  26.6  86.2   29.68     2
2018-02-21 05:46  18.1  20.4   352  30.2  26.5  86.1   29.68     2
2018-02-21 05:44  18.7  22.6   349  30.2  26.7  86.6   29.67     2
2018-02-21 05:42  16.1  20.0   349  30.2  26.7  86.6   29.67     2
2018-02-21 05:40  13.8  17.9   349  30.4  26.7  86.0   29.66     2
2018-02-21 05:38  14.8  17.5   353  30.4  26.4  85.1   29.66     2
2018-02-21 05:36  14.4  17.9   358  30.6  26.5  84.8   29.65     2
2018-02-21 05:34  12.8  15.4   359  30.6  26.4  84.4   29.65     2
2018-02-21 05:32  15.9  21.0     2  30.6  26.4  84.2   29.65     2
2018-02-21 05:30  15.2  20.8   358  30.6  26.4  84.5   29.66     2
2018-02-21 05:28  14.6  20.2   356  30.6  26.3  84.0   29.65     2
2018-02-21 05:26  15.9  22.9   358  30.6  26.3  84.0   29.65     3
2018-02-21 05:24  15.9  21.0   354  30.6  26.4  84.2   29.65     2
2018-02-21 05:22  14.2  17.5   357  30.6  26.2  83.8   29.65     2
2018-02-21 05:20  15.4  19.8   354  30.6  26.1  83.2   29.65     2
2018-02-21 05:18  17.3  21.0   360  30.4  25.8  82.8   29.64     2
2018-02-21 05:16  18.1  24.7   355  30.6  26.0  83.1   29.64     2
2018-02-21 05:14  16.9  23.9   357  30.6  26.1  83.4   29.64     2
2018-02-21 05:12  15.2  19.1   354  30.6  26.0  83.0   29.64     2
2018-02-21 05:10  15.0  21.0   360  30.6  26.0  83.0   29.64     2